sensor_id;sensor_type;location;lat;lon;timestamp;pressure;altitude;pressure_sealevel;temperature;humidity
58973;BME280;44750;52.040;7.472;2023-02-01T00:04:20;100225.00;;;5.02;100.00
58973;BME280;44750;52.040;7.472;2023-02-01T00:09:21;100236.09;;;4.98;100.00
58973;BME280;44750;52.040;7.472;2023-02-01T00:14:21;100245.59;;;5.02;100.00
58973;BME280;44750;52.040;7.472;2023-02-01T00:19:21;100224.84;;;5.04;100.00
58973;BME280;44750;52.040;7.472;2023-02-01T00:24:21;100229.22;;;5.05;100.00
58973;BME280;44750;52.040;7.472;2023-02-01T00:29:22;100236.56;;;5.03;100.00
58973;BME280;44750;52.040;7.472;2023-02-01T00:34:22;100231.91;;;5.05;100.00
58973;BME280;44750;52.040;7.472;2023-02-01T00:39:22;100255.06;;;5.06;100.00
58973;BME280;44750;52.040;7.472;2023-02-01T00:44:23;100268.34;;;5.08;100.00
58973;BME280;44750;52.040;7.472;2023-02-01T00:49:23;100279.56;;;5.13;100.00
58973;BME280;44750;52.040;7.472;2023-02-01T00:54:23;100266.53;;;5.08;100.00
58973;BME280;44750;52.040;7.472;2023-02-01T00:59:23;100273.63;;;5.09;100.00
58973;BME280;44750;52.040;7.472;2023-02-01T01:04:24;100283.09;;;5.13;100.00
58973;BME280;44750;52.040;7.472;2023-02-01T01:09:24;100295.41;;;5.16;100.00
58973;BME280;44750;52.040;7.472;2023-02-01T01:14:24;100301.34;;;5.19;100.00
58973;BME280;44750;52.040;7.472;2023-02-01T01:19:24;100293.31;;;5.19;100.00
58973;BME280;44750;52.040;7.472;2023-02-01T01:24:25;100297.00;;;5.18;100.00
58973;BME280;44750;52.040;7.472;2023-02-01T01:29:25;100303.06;;;5.21;100.00
58973;BME280;44750;52.040;7.472;2023-02-01T01:34:25;100298.44;;;5.23;100.00
58973;BME280;44750;52.040;7.472;2023-02-01T01:39:26;100287.31;;;5.27;100.00
58973;BME280;44750;52.040;7.472;2023-02-01T01:49:57;100263.28;;;5.26;100.00
58973;BME280;44750;52.040;7.472;2023-02-01T01:54:58;100245.75;;;5.22;100.00
58973;BME280;44750;52.040;7.472;2023-02-01T02:00:04;100225.97;;;5.23;100.00
58973;BME280;44750;52.040;7.472;2023-02-01T02:05:06;100213.53;;;5.22;100.00
58973;BME280;44750;52.040;7.472;2023-02-01T02:10:09;100225.72;;;5.26;100.00
58973;BME280;44750;52.040;7.472;2023-02-01T02:15:12;100195.03;;;5.18;100.00
58973;BME280;44750;52.040;7.472;2023-02-01T02:20:28;100163.06;;;5.15;100.00
58973;BME280;44750;52.040;7.472;2023-02-01T02:32:10;100171.84;;;5.17;100.00
58973;BME280;44750;52.040;7.472;2023-02-01T02:42:11;100146.78;;;5.07;100.00
58973;BME280;44750;52.040;7.472;2023-02-01T02:47:26;100142.66;;;5.03;100.00
58973;BME280;44750;52.040;7.472;2023-02-01T02:52:28;100138.00;;;5.05;100.00
58973;BME280;44750;52.040;7.472;2023-02-01T02:57:34;100149.34;;;5.09;100.00
58973;BME280;44750;52.040;7.472;2023-02-01T03:02:36;100153.88;;;5.08;100.00
58973;BME280;44750;52.040;7.472;2023-02-01T03:12:44;100131.47;;;4.98;100.00
58973;BME280;44750;52.040;7.472;2023-02-01T03:17:44;100130.22;;;5.02;100.00
58973;BME280;44750;52.040;7.472;2023-02-01T03:22:46;100125.84;;;5.01;100.00
58973;BME280;44750;52.040;7.472;2023-02-01T03:32:54;100108.06;;;5.00;100.00
58973;BME280;44750;52.040;7.472;2023-02-01T03:37:56;100110.75;;;5.00;100.00
58973;BME280;44750;52.040;7.472;2023-02-01T03:43:02;100132.63;;;5.05;100.00
58973;BME280;44750;52.040;7.472;2023-02-01T03:48:05;100133.09;;;5.10;100.00
58973;BME280;44750;52.040;7.472;2023-02-01T03:53:13;100135.28;;;5.16;100.00
58973;BME280;44750;52.040;7.472;2023-02-01T03:58:19;100139.38;;;5.21;100.00
58973;BME280;44750;52.040;7.472;2023-02-01T04:03:20;100146.03;;;5.26;100.00
58973;BME280;44750;52.040;7.472;2023-02-01T04:08:21;100134.94;;;5.31;100.00
58973;BME280;44750;52.040;7.472;2023-02-01T04:13:21;100130.00;;;5.36;100.00
58973;BME280;44750;52.040;7.472;2023-02-01T04:18:21;100123.63;;;5.37;100.00
58973;BME280;44750;52.040;7.472;2023-02-01T04:23:22;100114.16;;;5.33;100.00
58973;BME280;44750;52.040;7.472;2023-02-01T04:28:22;100109.34;;;5.27;100.00
58973;BME280;44750;52.040;7.472;2023-02-01T04:33:22;100121.50;;;5.31;100.00
58973;BME280;44750;52.040;7.472;2023-02-01T04:38:22;100100.84;;;5.22;100.00
58973;BME280;44750;52.040;7.472;2023-02-01T04:43:23;100094.38;;;5.24;100.00
58973;BME280;44750;52.040;7.472;2023-02-01T04:48:23;100112.59;;;5.30;100.00
58973;BME280;44750;52.040;7.472;2023-02-01T04:53:23;100120.91;;;5.27;100.00
58973;BME280;44750;52.040;7.472;2023-02-01T04:58:23;100122.03;;;5.25;100.00
58973;BME280;44750;52.040;7.472;2023-02-01T05:03:24;100147.56;;;5.40;100.00
58973;BME280;44750;52.040;7.472;2023-02-01T05:08:24;100116.28;;;5.29;100.00
58973;BME280;44750;52.040;7.472;2023-02-01T05:13:25;100129.69;;;5.29;100.00
58973;BME280;44750;52.040;7.472;2023-02-01T05:18:25;100134.38;;;5.37;100.00
58973;BME280;44750;52.040;7.472;2023-02-01T05:23:25;100121.50;;;5.31;100.00
58973;BME280;44750;52.040;7.472;2023-02-01T05:28:26;100134.25;;;5.39;100.00
58973;BME280;44750;52.040;7.472;2023-02-01T05:33:26;100129.00;;;5.37;100.00
58973;BME280;44750;52.040;7.472;2023-02-01T05:38:27;100130.47;;;5.41;100.00
58973;BME280;44750;52.040;7.472;2023-02-01T05:43:27;100126.06;;;5.40;100.00
58973;BME280;44750;52.040;7.472;2023-02-01T05:48:27;100131.31;;;5.42;100.00
58973;BME280;44750;52.040;7.472;2023-02-01T05:53:27;100135.38;;;5.36;100.00
58973;BME280;44750;52.040;7.472;2023-02-01T05:58:29;100139.75;;;5.37;99.77
58973;BME280;44750;52.040;7.472;2023-02-01T06:03:29;100131.97;;;5.34;98.96
58973;BME280;44750;52.040;7.472;2023-02-01T06:08:29;100147.56;;;5.40;98.70
58973;BME280;44750;52.040;7.472;2023-02-01T06:13:30;100163.38;;;5.43;98.62
58973;BME280;44750;52.040;7.472;2023-02-01T06:18:30;100191.41;;;5.50;98.24
58973;BME280;44750;52.040;7.472;2023-02-01T06:23:30;100178.97;;;5.49;98.62
58973;BME280;44750;52.040;7.472;2023-02-01T06:28:32;100176.13;;;5.51;98.61
58973;BME280;44750;52.040;7.472;2023-02-01T06:33:33;100177.97;;;5.50;99.19
58973;BME280;44750;52.040;7.472;2023-02-01T06:38:34;100191.44;;;5.60;99.28
58973;BME280;44750;52.040;7.472;2023-02-01T06:43:35;100188.47;;;5.63;99.52
58973;BME280;44750;52.040;7.472;2023-02-01T06:48:35;100177.16;;;5.60;100.00
58973;BME280;44750;52.040;7.472;2023-02-01T06:53:35;100180.56;;;5.62;100.00
58973;BME280;44750;52.040;7.472;2023-02-01T06:58:35;100191.16;;;5.63;100.00
58973;BME280;44750;52.040;7.472;2023-02-01T07:03:36;100177.50;;;5.66;100.00
58973;BME280;44750;52.040;7.472;2023-02-01T07:08:38;100166.31;;;5.61;100.00
58973;BME280;44750;52.040;7.472;2023-02-01T07:13:38;100189.47;;;5.62;100.00
58973;BME280;44750;52.040;7.472;2023-02-01T07:18:39;100213.25;;;5.67;100.00
58973;BME280;44750;52.040;7.472;2023-02-01T07:23:39;100201.06;;;5.63;100.00
58973;BME280;44750;52.040;7.472;2023-02-01T07:28:40;100215.50;;;5.72;100.00
58973;BME280;44750;52.040;7.472;2023-02-01T07:33:41;100202.22;;;5.70;100.00
58973;BME280;44750;52.040;7.472;2023-02-01T07:38:41;100202.22;;;5.70;100.00
58973;BME280;44750;52.040;7.472;2023-02-01T07:43:42;100214.41;;;5.74;100.00
58973;BME280;44750;52.040;7.472;2023-02-01T07:48:42;100222.06;;;5.79;100.00
58973;BME280;44750;52.040;7.472;2023-02-01T07:53:43;100214.84;;;5.79;100.00
58973;BME280;44750;52.040;7.472;2023-02-01T07:58:47;100222.25;;;5.87;100.00
58973;BME280;44750;52.040;7.472;2023-02-01T08:03:48;100212.34;;;5.88;100.00
58973;BME280;44750;52.040;7.472;2023-02-01T08:08:50;100220.13;;;5.91;100.00
58973;BME280;44750;52.040;7.472;2023-02-01T08:13:50;100216.06;;;5.96;100.00
58973;BME280;44750;52.040;7.472;2023-02-01T08:18:51;100212.53;;;5.96;100.00
58973;BME280;44750;52.040;7.472;2023-02-01T08:23:52;100215.41;;;6.04;100.00
58973;BME280;44750;52.040;7.472;2023-02-01T08:28:55;100205.22;;;6.08;100.00
58973;BME280;44750;52.040;7.472;2023-02-01T08:33:58;100205.53;;;6.14;100.00
58973;BME280;44750;52.040;7.472;2023-02-01T08:39:00;100194.53;;;6.17;100.00
58973;BME280;44750;52.040;7.472;2023-02-01T08:44:01;100183.78;;;6.17;100.00
58973;BME280;44750;52.040;7.472;2023-02-01T08:49:01;100177.81;;;6.24;100.00
58973;BME280;44750;52.040;7.472;2023-02-01T08:54:01;100177.44;;;6.28;100.00
58973;BME280;44750;52.040;7.472;2023-02-01T08:59:02;100169.66;;;6.35;100.00
58973;BME280;44750;52.040;7.472;2023-02-01T09:04:02;100167.13;;;6.43;100.00
58973;BME280;44750;52.040;7.472;2023-02-01T09:09:02;100164.31;;;6.55;100.00
58973;BME280;44750;52.040;7.472;2023-02-01T09:14:03;100132.03;;;6.55;100.00
58973;BME280;44750;52.040;7.472;2023-02-01T09:19:03;100131.31;;;6.62;100.00
58973;BME280;44750;52.040;7.472;2023-02-01T09:24:04;100118.44;;;6.66;100.00
58973;BME280;44750;52.040;7.472;2023-02-01T09:29:05;100105.44;;;6.61;100.00
58973;BME280;44750;52.040;7.472;2023-02-01T09:34:06;100121.25;;;6.74;100.00
58973;BME280;44750;52.040;7.472;2023-02-01T09:39:07;100100.16;;;6.79;100.00
58973;BME280;44750;52.040;7.472;2023-02-01T09:44:48;100121.41;;;6.92;100.00
58973;BME280;44750;52.040;7.472;2023-02-01T09:55:00;100086.13;;;7.05;100.00
58973;BME280;44750;52.040;7.472;2023-02-01T10:00:04;100096.72;;;6.97;100.00
58973;BME280;44750;52.040;7.472;2023-02-01T10:05:16;100103.69;;;6.90;100.00
58973;BME280;44750;52.040;7.472;2023-02-01T10:10:35;100120.34;;;7.13;100.00
58973;BME280;44750;52.040;7.472;2023-02-01T10:21:09;100098.00;;;7.02;100.00
58973;BME280;44750;52.040;7.472;2023-02-01T10:31:18;100116.25;;;7.18;100.00
58973;BME280;44750;52.040;7.472;2023-02-01T10:36:25;100103.31;;;7.22;100.00
58973;BME280;44750;52.040;7.472;2023-02-01T10:41:31;100106.59;;;7.26;100.00
58973;BME280;44750;52.040;7.472;2023-02-01T10:46:33;100064.50;;;7.25;100.00
58973;BME280;44750;52.040;7.472;2023-02-01T10:51:43;100036.47;;;7.17;100.00
58973;BME280;44750;52.040;7.472;2023-02-01T10:56:46;100057.03;;;7.09;100.00
58973;BME280;44750;52.040;7.472;2023-02-01T11:01:48;100070.81;;;7.06;100.00
58973;BME280;44750;52.040;7.472;2023-02-01T11:06:53;100055.38;;;6.98;100.00
58973;BME280;44750;52.040;7.472;2023-02-01T11:12:03;100077.47;;;6.92;100.00
58973;BME280;44750;52.040;7.472;2023-02-01T11:17:29;100105.41;;;6.71;100.00
58973;BME280;44750;52.040;7.472;2023-02-01T11:22:32;100117.31;;;6.49;100.00
58973;BME280;44750;52.040;7.472;2023-02-01T11:27:32;100153.09;;;6.40;100.00
58973;BME280;44750;52.040;7.472;2023-02-01T11:32:33;100174.19;;;6.34;100.00
58973;BME280;44750;52.040;7.472;2023-02-01T11:37:37;100190.00;;;6.18;100.00
58973;BME280;44750;52.040;7.472;2023-02-01T11:43:07;100196.78;;;6.22;97.73
58973;BME280;44750;52.040;7.472;2023-02-01T11:48:10;100207.41;;;6.24;91.99
58973;BME280;44750;52.040;7.472;2023-02-01T12:03:57;100266.63;;;6.12;74.36
58973;BME280;44750;52.040;7.472;2023-02-01T12:19:58;100302.75;;;5.98;55.49
58973;BME280;44750;52.040;7.472;2023-02-01T12:25:13;100317.25;;;6.07;48.33
58973;BME280;44750;52.040;7.472;2023-02-01T12:30:59;100320.25;;;6.14;43.84
58973;BME280;44750;52.040;7.472;2023-02-01T12:46:46;100317.91;;;6.30;34.32
58973;BME280;44750;52.040;7.472;2023-02-01T12:51:49;100328.53;;;6.32;32.94
58973;BME280;44750;52.040;7.472;2023-02-01T12:56:56;100340.88;;;6.34;32.02
58973;BME280;44750;52.040;7.472;2023-02-01T13:02:28;100339.19;;;6.43;31.44
58973;BME280;44750;52.040;7.472;2023-02-01T13:07:41;100343.16;;;6.49;31.18
58973;BME280;44750;52.040;7.472;2023-02-01T13:12:56;100349.41;;;6.49;31.68
58973;BME280;44750;52.040;7.472;2023-02-01T13:18:02;100321.13;;;6.55;32.01
58973;BME280;44750;52.040;7.472;2023-02-01T13:23:10;100312.22;;;6.64;33.19
58973;BME280;44750;52.040;7.472;2023-02-01T13:44:27;100284.41;;;6.95;43.30
58973;BME280;44750;52.040;7.472;2023-02-01T13:49:32;100279.59;;;7.08;45.13
58973;BME280;44750;52.040;7.472;2023-02-01T13:54:38;100295.31;;;7.32;46.48
58973;BME280;44750;52.040;7.472;2023-02-01T14:04:50;100230.28;;;7.17;54.37
58973;BME280;44750;52.040;7.472;2023-02-01T14:09:50;100226.03;;;7.25;56.01
58973;BME280;44750;52.040;7.472;2023-02-01T14:14:51;100240.47;;;7.14;57.14
58973;BME280;44750;52.040;7.472;2023-02-01T14:25:33;100246.13;;;7.01;57.31
58973;BME280;44750;52.040;7.472;2023-02-01T14:30:35;100260.03;;;6.96;57.22
58973;BME280;44750;52.040;7.472;2023-02-01T14:35:35;100271.19;;;6.92;56.66
58973;BME280;44750;52.040;7.472;2023-02-01T14:40:36;100247.84;;;6.92;58.60
58973;BME280;44750;52.040;7.472;2023-02-01T14:50:47;100286.81;;;6.88;57.12
58973;BME280;44750;52.040;7.472;2023-02-01T14:56:08;100320.94;;;6.97;53.99
58973;BME280;44750;52.040;7.472;2023-02-01T15:01:30;100318.09;;;6.89;52.73
58973;BME280;44750;52.040;7.472;2023-02-01T15:06:38;100328.13;;;6.87;51.88
58973;BME280;44750;52.040;7.472;2023-02-01T15:12:04;100323.19;;;6.92;51.67
58973;BME280;44750;52.040;7.472;2023-02-01T15:17:31;100323.78;;;6.96;51.56
58973;BME280;44750;52.040;7.472;2023-02-01T15:22:32;100327.88;;;7.00;50.06
58973;BME280;44750;52.040;7.472;2023-02-01T15:27:32;100305.38;;;7.11;49.52
58973;BME280;44750;52.040;7.472;2023-02-01T15:32:38;100361.22;;;7.18;51.46
58973;BME280;44750;52.040;7.472;2023-02-01T15:37:39;100317.84;;;7.22;54.86
58973;BME280;44750;52.040;7.472;2023-02-01T15:42:57;100289.66;;;7.16;59.92
58973;BME280;44750;52.040;7.472;2023-02-01T15:47:59;100286.25;;;7.14;63.83
58973;BME280;44750;52.040;7.472;2023-02-01T15:53:00;100264.56;;;7.06;65.33
58973;BME280;44750;52.040;7.472;2023-02-01T15:58:00;100251.69;;;7.09;65.41
58973;BME280;44750;52.040;7.472;2023-02-01T16:03:05;100278.31;;;7.12;66.05
58973;BME280;44750;52.040;7.472;2023-02-01T16:08:12;100274.63;;;7.13;68.85
58973;BME280;44750;52.040;7.472;2023-02-01T16:13:14;100236.81;;;7.05;71.74
58973;BME280;44750;52.040;7.472;2023-02-01T16:18:15;100243.31;;;7.12;73.82
58973;BME280;44750;52.040;7.472;2023-02-01T16:23:18;100227.88;;;7.05;75.12
58973;BME280;44750;52.040;7.472;2023-02-01T16:28:20;100231.69;;;7.02;76.82
58973;BME280;44750;52.040;7.472;2023-02-01T16:33:21;100218.41;;;7.00;78.17
58973;BME280;44750;52.040;7.472;2023-02-01T16:38:22;100227.44;;;6.99;78.15
58973;BME280;44750;52.040;7.472;2023-02-01T16:43:24;100233.50;;;6.43;78.05
58973;BME280;44750;52.040;7.472;2023-02-01T16:48:35;100272.91;;;6.23;72.14
58973;BME280;44750;52.040;7.472;2023-02-01T16:53:36;100307.75;;;6.03;65.27
58973;BME280;44750;52.040;7.472;2023-02-01T16:58:36;100376.69;;;6.14;58.54
58973;BME280;44750;52.040;7.472;2023-02-01T17:03:37;100395.13;;;6.18;52.19
58973;BME280;44750;52.040;7.472;2023-02-01T17:08:41;100415.59;;;6.41;48.71
58973;BME280;44750;52.040;7.472;2023-02-01T17:13:42;100441.63;;;6.40;47.16
58973;BME280;44750;52.040;7.472;2023-02-01T17:18:46;100470.56;;;6.48;44.05
58973;BME280;44750;52.040;7.472;2023-02-01T17:23:47;100471.41;;;6.48;41.93
58973;BME280;44750;52.040;7.472;2023-02-01T17:28:47;100483.00;;;6.49;39.96
58973;BME280;44750;52.040;7.472;2023-02-01T17:33:48;100503.66;;;6.48;37.96
58973;BME280;44750;52.040;7.472;2023-02-01T17:38:48;100501.38;;;6.44;36.66
58973;BME280;44750;52.040;7.472;2023-02-01T17:43:49;100514.69;;;6.45;35.94
58973;BME280;44750;52.040;7.472;2023-02-01T17:48:52;100518.63;;;6.41;35.75
58973;BME280;44750;52.040;7.472;2023-02-01T17:53:52;100519.97;;;6.35;36.77
58973;BME280;44750;52.040;7.472;2023-02-01T17:58:53;100520.13;;;6.34;37.90
58973;BME280;44750;52.040;7.472;2023-02-01T18:03:53;100509.50;;;6.32;39.36
58973;BME280;44750;52.040;7.472;2023-02-01T18:08:53;100519.91;;;6.26;40.49
58973;BME280;44750;52.040;7.472;2023-02-01T18:13:54;100533.09;;;6.29;39.51
58973;BME280;44750;52.040;7.472;2023-02-01T18:18:54;100533.09;;;6.29;39.28
58973;BME280;44750;52.040;7.472;2023-02-01T18:23:55;100525.44;;;6.24;39.04
58973;BME280;44750;52.040;7.472;2023-02-01T18:28:55;100518.22;;;6.25;38.84
58973;BME280;44750;52.040;7.472;2023-02-01T18:33:57;100542.03;;;6.29;37.12
58973;BME280;44750;52.040;7.472;2023-02-01T18:38:57;100550.22;;;6.28;36.01
58973;BME280;44750;52.040;7.472;2023-02-01T18:43:58;100543.28;;;6.25;35.22
58973;BME280;44750;52.040;7.472;2023-02-01T18:48:58;100557.34;;;6.17;35.14
58973;BME280;44750;52.040;7.472;2023-02-01T18:53:58;100537.84;;;6.04;36.72
58973;BME280;44750;52.040;7.472;2023-02-01T18:58:59;100494.66;;;5.84;40.38
58973;BME280;44750;52.040;7.472;2023-02-01T19:03:59;100504.63;;;5.94;43.17
58973;BME280;44750;52.040;7.472;2023-02-01T19:08:59;100461.44;;;5.85;48.68
58973;BME280;44750;52.040;7.472;2023-02-01T19:14:00;100454.19;;;5.97;55.34
58973;BME280;44750;52.040;7.472;2023-02-01T19:19:00;100403.38;;;5.94;63.18
58973;BME280;44750;52.040;7.472;2023-02-01T19:24:00;100360.81;;;5.90;68.51
58973;BME280;44750;52.040;7.472;2023-02-01T19:29:00;100326.41;;;5.83;71.87
58973;BME280;44750;52.040;7.472;2023-02-01T19:34:01;100337.75;;;5.87;73.11
58973;BME280;44750;52.040;7.472;2023-02-01T19:39:01;100318.91;;;5.77;73.96
58973;BME280;44750;52.040;7.472;2023-02-01T19:44:01;100322.56;;;5.76;73.06
58973;BME280;44750;52.040;7.472;2023-02-01T19:49:02;100332.00;;;5.71;71.62
58973;BME280;44750;52.040;7.472;2023-02-01T19:54:02;100343.31;;;5.74;69.74
58973;BME280;44750;52.040;7.472;2023-02-01T19:59:03;100350.78;;;5.71;68.98
58973;BME280;44750;52.040;7.472;2023-02-01T20:04:03;100348.22;;;5.69;67.65
58973;BME280;44750;52.040;7.472;2023-02-01T20:09:04;100356.81;;;5.63;65.49
58973;BME280;44750;52.040;7.472;2023-02-01T20:14:04;100389.75;;;5.65;62.01
58973;BME280;44750;52.040;7.472;2023-02-01T20:19:05;100409.41;;;5.65;59.25
58973;BME280;44750;52.040;7.472;2023-02-01T20:24:12;100436.13;;;5.67;55.85
58973;BME280;44750;52.040;7.472;2023-02-01T20:29:12;100444.44;;;5.64;52.85
58973;BME280;44750;52.040;7.472;2023-02-01T20:34:13;100471.31;;;5.64;49.96
58973;BME280;44750;52.040;7.472;2023-02-01T20:39:13;100488.25;;;5.64;46.63
58973;BME280;44750;52.040;7.472;2023-02-01T20:44:15;100516.69;;;5.67;43.76
58973;BME280;44750;52.040;7.472;2023-02-01T20:49:15;100523.28;;;5.63;41.08
58973;BME280;44750;52.040;7.472;2023-02-01T20:54:15;100560.97;;;5.73;38.44
58973;BME280;44750;52.040;7.472;2023-02-01T20:59:15;100567.47;;;5.70;37.01
58973;BME280;44750;52.040;7.472;2023-02-01T21:04:20;100585.50;;;5.79;35.28
58973;BME280;44750;52.040;7.472;2023-02-01T21:09:21;100565.88;;;5.79;34.76
58973;BME280;44750;52.040;7.472;2023-02-01T21:14:21;100581.38;;;5.86;34.93
58973;BME280;44750;52.040;7.472;2023-02-01T21:19:22;100582.69;;;5.81;34.44
58973;BME280;44750;52.040;7.472;2023-02-01T21:24:22;100576.84;;;5.76;33.98
58973;BME280;44750;52.040;7.472;2023-02-01T21:29:22;100584.81;;;5.77;32.98
58973;BME280;44750;52.040;7.472;2023-02-01T21:34:22;100600.16;;;5.86;32.02
58973;BME280;44750;52.040;7.472;2023-02-01T21:39:23;100611.50;;;5.90;30.85
58973;BME280;44750;52.040;7.472;2023-02-01T21:44:24;100618.09;;;5.97;30.17
58973;BME280;44750;52.040;7.472;2023-02-01T21:49:24;100629.06;;;5.94;28.35
58973;BME280;44750;52.040;7.472;2023-02-01T21:54:24;100638.00;;;5.95;27.33
58973;BME280;44750;52.040;7.472;2023-02-01T21:59:25;100656.06;;;5.93;26.10
58973;BME280;44750;52.040;7.472;2023-02-01T22:04:25;100669.28;;;5.96;25.29
58973;BME280;44750;52.040;7.472;2023-02-01T22:09:25;100670.00;;;5.86;24.17
58973;BME280;44750;52.040;7.472;2023-02-01T22:14:25;100672.56;;;5.88;23.87
58973;BME280;44750;52.040;7.472;2023-02-01T22:19:26;100698.34;;;5.91;23.10
58973;BME280;44750;52.040;7.472;2023-02-01T22:24:26;100700.53;;;5.85;22.57
58973;BME280;44750;52.040;7.472;2023-02-01T22:29:26;100729.13;;;5.86;21.89
58973;BME280;44750;52.040;7.472;2023-02-01T22:34:26;100731.81;;;5.86;21.60
58973;BME280;44750;52.040;7.472;2023-02-01T22:39:27;100731.31;;;5.81;21.56
58973;BME280;44750;52.040;7.472;2023-02-01T22:44:27;100737.53;;;5.82;21.89
58973;BME280;44750;52.040;7.472;2023-02-01T22:49:27;100743.88;;;5.81;23.08
58973;BME280;44750;52.040;7.472;2023-02-01T22:54:27;100729.47;;;5.71;24.84
58973;BME280;44750;52.040;7.472;2023-02-01T22:59:28;100747.66;;;5.78;25.21
58973;BME280;44750;52.040;7.472;2023-02-01T23:04:28;100752.81;;;5.81;26.38
58973;BME280;44750;52.040;7.472;2023-02-01T23:09:28;100738.13;;;5.74;27.53
58973;BME280;44750;52.040;7.472;2023-02-01T23:14:28;100738.38;;;5.71;28.02
58973;BME280;44750;52.040;7.472;2023-02-01T23:19:29;100739.13;;;5.73;27.88
58973;BME280;44750;52.040;7.472;2023-02-01T23:24:29;100722.50;;;5.57;28.44
58973;BME280;44750;52.040;7.472;2023-02-01T23:29:29;100752.53;;;5.62;28.14
58973;BME280;44750;52.040;7.472;2023-02-01T23:34:29;100758.16;;;5.59;27.35
58973;BME280;44750;52.040;7.472;2023-02-01T23:39:29;100780.34;;;5.61;26.80
58973;BME280;44750;52.040;7.472;2023-02-01T23:44:30;100795.25;;;5.65;26.27
58973;BME280;44750;52.040;7.472;2023-02-01T23:49:30;100794.16;;;5.67;26.29
58973;BME280;44750;52.040;7.472;2023-02-01T23:54:31;100797.72;;;5.68;26.79
58973;BME280;44750;52.040;7.472;2023-02-01T23:59:31;100790.63;;;5.67;26.67
